Time;durP1;ratioP1;P1;durP2;ratioP2;P2;SDS_P1;SDS_P2;PMS_P1;PMS_P2;Temp;Humidity;BMP_temperature;BMP_pressure;BME280_temperature;BME280_humidity;BME280_pressure;Samples;Min_cycle;Max_cycle;Signal;HPM_P1;HPM_P2
2023/09/26 00:01:39;;;;;;;3.80;1.83;;;;;;;13.42;100.00;101959.59;5076291;28;20433;-72
2023/09/26 00:04:06;;;;;;;4.57;2.10;;;;;;;13.38;100.00;101957.44;5090140;22;20579;-72
2023/09/26 00:06:32;;;;;;;4.17;2.00;;;;;;;13.35;98.45;101949.00;5076566;28;20463;-72
2023/09/26 00:08:59;;;;;;;4.40;2.03;;;;;;;13.27;98.48;101953.16;5076799;28;20441;-72
2023/09/26 00:11:27;;;;;;;3.97;2.10;;;;;;;13.21;99.91;101950.75;5076498;28;20477;-72
2023/09/26 00:13:55;;;;;;;5.07;2.07;;;;;;;13.19;99.75;101950.19;5076534;28;20441;-72
2023/09/26 00:16:22;;;;;;;4.10;1.90;;;;;;;13.15;99.82;101941.81;5076470;28;20457;-72
2023/09/26 00:18:48;;;;;;;4.57;2.07;;;;;;;13.11;100.00;101944.28;5076326;28;20867;-72
2023/09/26 00:21:15;;;;;;;3.90;2.20;;;;;;;13.18;100.00;101941.22;5076374;28;20516;-72
2023/09/26 00:23:41;;;;;;;8.57;2.60;;;;;;;13.19;100.00;101942.84;5076063;28;20529;-72
2023/09/26 00:26:08;;;;;;;6.43;2.50;;;;;;;13.20;100.00;101932.81;5075771;28;20462;-72
2023/09/26 00:28:35;;;;;;;3.93;2.00;;;;;;;13.18;100.00;101943.94;5076428;28;20469;-72
2023/09/26 00:31:04;;;;;;;6.10;2.40;;;;;;;13.12;100.00;101937.75;5075221;28;21062;-72
2023/09/26 00:33:32;;;;;;;4.47;2.00;;;;;;;13.21;100.00;101937.94;5076007;28;20979;-72
2023/09/26 00:36:06;;;;;;;3.50;2.10;;;;;;;13.19;100.00;101942.03;5075846;28;20457;-72
2023/09/26 00:38:33;;;;;;;5.33;2.70;;;;;;;13.15;100.00;101930.94;5076587;28;20491;-72
2023/09/26 00:41:00;;;;;;;3.57;1.87;;;;;;;13.18;100.00;101932.25;5075772;28;20888;-71
2023/09/26 00:43:26;;;;;;;3.63;2.20;;;;;;;13.24;100.00;101940.13;5075817;28;20522;-71
2023/09/26 00:45:55;;;;;;;3.50;1.70;;;;;;;13.20;100.00;101932.81;5075391;28;20873;-71
2023/09/26 00:48:25;;;;;;;3.23;1.43;;;;;;;13.16;100.00;101934.47;5075398;28;20507;-71
2023/09/26 00:50:52;;;;;;;3.70;1.53;;;;;;;13.18;100.00;101933.06;5075303;28;20488;-71
2023/09/26 00:53:19;;;;;;;4.70;2.20;;;;;;;13.18;100.00;101941.22;5075274;28;20473;-71
2023/09/26 00:55:46;;;;;;;3.63;2.00;;;;;;;13.20;100.00;101935.53;5075710;28;20480;-71
2023/09/26 00:58:17;;;;;;;5.67;2.63;;;;;;;13.17;100.00;101936.88;5075421;28;20525;-71
2023/09/26 01:00:45;;;;;;;4.80;2.40;;;;;;;13.18;100.00;101938.50;5076033;28;20433;-71
2023/09/26 01:03:12;;;;;;;4.77;2.47;;;;;;;13.18;100.00;101934.97;5075431;28;20511;-71
2023/09/26 01:05:40;;;;;;;5.20;2.30;;;;;;;13.20;100.00;101933.59;5075188;28;20484;-71
2023/09/26 01:08:07;;;;;;;4.27;2.10;;;;;;;13.23;100.00;101930.31;5075451;28;20649;-71
2023/09/26 01:10:34;;;;;;;5.40;2.60;;;;;;;13.24;100.00;101929.25;5075150;28;20850;-71
2023/09/26 01:13:02;;;;;;;7.87;2.50;;;;;;;13.19;100.00;101923.81;5075395;28;20917;-72
2023/09/26 01:15:36;;;;;;;5.63;2.23;;;;;;;13.22;100.00;101922.44;5075846;28;20469;-71
2023/09/26 01:18:03;;;;;;;3.37;2.13;;;;;;;13.20;100.00;101925.44;5075150;28;20894;-72
2023/09/26 01:20:30;;;;;;;3.87;1.97;;;;;;;13.23;100.00;101919.44;5075451;28;20437;-71
2023/09/26 01:22:58;;;;;;;5.27;2.40;;;;;;;13.23;100.00;101918.63;5075407;28;20437;-71
2023/09/26 01:25:26;;;;;;;7.40;2.43;;;;;;;13.23;100.00;101908.56;5075063;28;20878;-71
2023/09/26 01:27:52;;;;;;;4.40;2.13;;;;;;;13.23;100.00;101914.00;5075229;28;20544;-71
2023/09/26 01:30:19;;;;;;;4.30;2.43;;;;;;;13.21;100.00;101916.19;5074904;28;20441;-71
2023/09/26 01:32:47;;;;;;;3.80;1.93;;;;;;;13.13;100.00;101909.44;5074887;28;20437;-72
2023/09/26 01:35:13;;;;;;;5.00;2.17;;;;;;;13.07;100.00;101916.03;5074765;28;20446;-72
2023/09/26 01:37:40;;;;;;;6.10;3.00;;;;;;;13.01;99.38;101913.63;5074911;28;20457;-71
2023/09/26 01:40:11;;;;;;;4.10;2.40;;;;;;;12.99;99.56;101918.53;5074633;28;20438;-71
2023/09/26 01:42:39;;;;;;;5.03;2.43;;;;;;;12.93;100.00;101908.81;5073994;28;20421;-71
2023/09/26 01:45:07;;;;;;;4.47;2.00;;;;;;;12.87;100.00;101911.56;5074547;28;20450;-71
2023/09/26 01:47:41;;;;;;;4.03;2.30;;;;;;;12.87;100.00;101914.28;5074768;28;20465;-71
2023/09/26 01:50:09;;;;;;;6.20;2.87;;;;;;;12.85;100.00;101919.19;5074685;28;20445;-71
2023/09/26 01:52:36;;;;;;;5.00;2.90;;;;;;;12.88;100.00;101913.19;5074680;28;20572;-71
2023/09/26 01:55:03;;;;;;;4.10;1.93;;;;;;;12.91;100.00;101911.00;5074398;28;20446;-71
2023/09/26 01:57:30;;;;;;;5.53;2.50;;;;;;;12.92;100.00;101907.16;5073943;28;20526;-71
2023/09/26 02:00:00;;;;;;;5.63;2.93;;;;;;;12.91;100.00;101900.91;5073920;28;20513;-71
2023/09/26 02:02:26;;;;;;;5.17;2.43;;;;;;;12.89;100.00;101905.84;5074201;28;20842;-71
2023/09/26 02:04:53;;;;;;;4.40;2.67;;;;;;;12.90;100.00;101909.38;5074115;28;20487;-71
2023/09/26 02:07:19;;;;;;;4.43;2.13;;;;;;;12.88;100.00;101909.63;5074273;28;20564;-71
2023/09/26 02:09:46;;;;;;;6.27;2.40;;;;;;;12.86;100.00;101907.22;5074762;28;20476;-71
2023/09/26 02:12:13;;;;;;;3.70;2.17;;;;;;;12.87;100.00;101900.66;5073949;28;20488;-71
2023/09/26 02:14:39;;;;;;;4.50;2.67;;;;;;;12.88;100.00;101905.03;5073957;28;20449;-71
2023/09/26 02:17:10;;;;;;;4.03;2.03;;;;;;;12.85;100.00;101902.88;5074362;28;20457;-71
2023/09/26 02:19:39;;;;;;;4.03;2.07;;;;;;;12.84;100.00;101911.34;5074298;28;20520;-71
2023/09/26 02:22:05;;;;;;;4.30;2.23;;;;;;;12.79;100.00;101911.34;5073930;28;20445;-71
2023/09/26 02:24:32;;;;;;;5.40;2.47;;;;;;;12.79;100.00;101911.34;5073947;28;20509;-71
2023/09/26 02:26:59;;;;;;;3.73;2.30;;;;;;;12.77;100.00;101903.47;5073795;28;20497;-71
2023/09/26 02:29:27;;;;;;;4.10;2.50;;;;;;;12.73;100.00;101907.84;5073993;28;20461;-71
2023/09/26 02:31:54;;;;;;;3.93;2.20;;;;;;;12.72;100.00;101908.97;5073864;28;20562;-71
2023/09/26 02:34:22;;;;;;;4.20;2.00;;;;;;;12.66;100.00;101909.25;5073729;28;20456;-71
2023/09/26 02:36:49;;;;;;;4.77;2.63;;;;;;;12.63;100.00;101911.47;5074091;28;20805;-72
2023/09/26 02:39:17;;;;;;;4.60;2.20;;;;;;;12.63;100.00;101905.22;5073408;28;20476;-72
2023/09/26 02:41:43;;;;;;;5.00;2.37;;;;;;;12.60;100.00;101903.06;5073965;28;20446;-72
2023/09/26 02:44:11;;;;;;;4.50;2.70;;;;;;;12.56;100.00;101905.50;5073783;28;20479;-72
2023/09/26 02:46:37;;;;;;;4.70;2.53;;;;;;;12.53;100.00;101905.28;5073506;28;20461;-72
2023/09/26 02:49:04;;;;;;;4.23;2.00;;;;;;;12.56;100.00;101910.16;5073582;28;20514;-72
2023/09/26 02:51:32;;;;;;;3.30;1.50;;;;;;;12.48;100.00;101897.94;5073779;28;20513;-71
2023/09/26 02:53:59;;;;;;;4.90;2.57;;;;;;;12.42;100.00;101904.53;5073239;28;20529;-71
2023/09/26 02:56:26;;;;;;;4.97;2.33;;;;;;;12.42;100.00;101903.72;5073055;28;20453;-72
2023/09/26 02:58:53;;;;;;;5.80;2.90;;;;;;;12.45;100.00;101898.53;5073629;28;20487;-72
2023/09/26 03:01:20;;;;;;;4.30;2.40;;;;;;;12.49;100.00;101904.22;5073728;28;20453;-72
2023/09/26 03:03:47;;;;;;;4.00;2.30;;;;;;;12.45;100.00;101897.72;5073243;28;20495;-72
2023/09/26 03:06:13;;;;;;;5.73;2.20;;;;;;;12.46;100.00;101896.63;5073551;28;20467;-72
2023/09/26 03:08:41;;;;;;;4.47;2.20;;;;;;;12.43;100.00;101899.91;5073292;28;20520;-72
2023/09/26 03:11:08;;;;;;;4.17;1.90;;;;;;;12.39;100.00;101907.78;5072993;28;20571;-71
2023/09/26 03:13:34;;;;;;;4.93;2.37;;;;;;;12.33;100.00;101907.00;5073330;28;20472;-71
2023/09/26 03:16:02;;;;;;;3.83;1.93;;;;;;;12.26;100.00;101906.53;5073686;28;20968;-72
2023/09/26 03:18:29;;;;;;;5.40;2.10;;;;;;;12.20;100.00;101904.09;5073295;28;20440;-72
2023/09/26 03:20:56;;;;;;;3.50;1.80;;;;;;;12.16;99.06;101914.72;5073219;28;20525;-72
2023/09/26 03:23:24;;;;;;;4.00;1.87;;;;;;;12.07;97.89;101911.75;5073830;28;20446;-72
2023/09/26 03:25:52;;;;;;;5.03;2.30;;;;;;;12.00;97.94;101913.97;5073778;28;21048;-72
2023/09/26 03:28:18;;;;;;;4.60;2.37;;;;;;;11.91;99.64;101914.81;5073202;28;21011;-72
2023/09/26 03:30:46;;;;;;;4.60;2.20;;;;;;;11.98;100.00;101908.00;5073157;28;20467;-72
2023/09/26 03:33:13;;;;;;;5.30;3.13;;;;;;;11.99;100.00;101912.31;5073508;28;20438;-72
2023/09/26 03:35:39;;;;;;;3.33;1.90;;;;;;;11.91;100.00;101904.78;5073369;28;20441;-72
2023/09/26 03:38:06;;;;;;;3.47;1.73;;;;;;;11.92;100.00;101895.53;5073607;28;20445;-72
2023/09/26 03:40:33;;;;;;;3.30;2.10;;;;;;;11.96;100.00;101902.03;5073077;28;20437;-72
2023/09/26 03:43:01;;;;;;;3.90;2.07;;;;;;;11.96;100.00;101896.63;5073081;28;20469;-69
2023/09/26 03:45:27;;;;;;;5.93;2.67;;;;;;;11.96;100.00;101884.94;5072774;28;20465;-71
2023/09/26 03:47:54;;;;;;;4.93;3.20;;;;;;;11.97;100.00;101894.72;5072645;28;20961;-71
2023/09/26 03:50:21;;;;;;;3.70;1.90;;;;;;;11.97;100.00;101892.00;5073565;28;20532;-71
2023/09/26 03:52:47;;;;;;;4.27;2.10;;;;;;;11.94;100.00;101887.91;5073176;28;20567;-71
2023/09/26 03:55:14;;;;;;;3.13;1.50;;;;;;;11.96;100.00;101885.75;5072852;28;20784;-71
2023/09/26 03:57:41;;;;;;;3.77;2.17;;;;;;;11.95;100.00;101884.09;5073264;28;20500;-72
2023/09/26 04:00:15;;;;;;;4.77;2.77;;;;;;;11.88;100.00;101877.38;5073178;28;20430;-70
2023/09/26 04:02:42;;;;;;;3.47;1.67;;;;;;;11.89;100.00;101873.56;5072910;28;20500;-71
2023/09/26 04:05:09;;;;;;;5.10;2.27;;;;;;;11.88;100.00;101880.09;5072849;28;20449;-72
2023/09/26 04:07:37;;;;;;;4.50;2.30;;;;;;;11.89;100.00;101876.28;5075712;28;20461;-72
2023/09/26 04:10:05;;;;;;;4.03;2.47;;;;;;;11.91;100.00;101877.63;5076594;28;20619;-72
2023/09/26 04:12:32;;;;;;;5.30;2.50;;;;;;;11.81;100.00;101873.00;5075982;28;20485;-72
2023/09/26 04:14:59;;;;;;;4.60;2.17;;;;;;;11.73;100.00;101876.31;5076164;28;20875;-72
2023/09/26 04:17:29;;;;;;;3.90;1.97;;;;;;;11.73;100.00;101870.03;5076238;28;20493;-72
2023/09/26 04:19:55;;;;;;;4.47;2.10;;;;;;;11.75;100.00;101870.59;5076246;28;20437;-72
2023/09/26 04:22:22;;;;;;;4.50;2.00;;;;;;;11.76;100.00;101867.59;5076376;28;20460;-72
2023/09/26 04:24:49;;;;;;;4.87;2.37;;;;;;;11.79;100.00;101861.63;5076459;28;20802;-72
2023/09/26 04:27:16;;;;;;;5.20;2.23;;;;;;;11.82;100.00;101871.09;5075689;28;20458;-72
2023/09/26 04:29:42;;;;;;;4.60;2.33;;;;;;;11.75;100.00;101857.84;5076062;28;20921;-72
2023/09/26 04:32:11;;;;;;;4.97;2.17;;;;;;;11.71;100.00;101850.53;5075829;28;20979;-72
2023/09/26 04:34:39;;;;;;;4.00;1.97;;;;;;;11.68;100.00;101860.00;5075824;28;20491;-72
2023/09/26 04:37:07;;;;;;;3.63;1.50;;;;;;;11.68;100.00;101851.88;5075634;28;20461;-72
2023/09/26 04:39:34;;;;;;;4.37;1.90;;;;;;;11.71;100.00;101850.53;5075385;28;20471;-72
2023/09/26 04:42:00;;;;;;;5.00;2.17;;;;;;;11.64;100.00;101856.22;5075624;28;20524;-72
2023/09/26 04:44:27;;;;;;;4.00;2.17;;;;;;;11.62;100.00;101853.00;5076033;28;20464;-72
2023/09/26 04:46:54;;;;;;;5.47;2.70;;;;;;;11.60;100.00;101855.19;5075401;28;20489;-72
2023/09/26 04:49:20;;;;;;;5.27;2.23;;;;;;;11.59;100.00;101859.78;5075468;28;20441;-72
2023/09/26 04:51:48;;;;;;;4.70;2.03;;;;;;;11.60;100.00;101860.63;5075020;28;21061;-72
2023/09/26 04:54:15;;;;;;;5.57;2.93;;;;;;;11.62;100.00;101855.72;5075966;28;20445;-72
2023/09/26 04:56:42;;;;;;;4.60;2.17;;;;;;;11.61;100.00;101856.81;5075552;28;20463;-72
2023/09/26 04:59:08;;;;;;;4.40;2.40;;;;;;;11.64;100.00;101861.66;5075340;28;20484;-72
2023/09/26 05:01:36;;;;;;;5.10;2.47;;;;;;;11.58;100.00;101851.91;5074882;28;20438;-72
2023/09/26 05:04:03;;;;;;;4.03;1.90;;;;;;;11.55;100.00;101863.31;5075723;28;20835;-72
2023/09/26 05:06:30;;;;;;;3.67;1.63;;;;;;;11.46;99.59;101860.34;5075311;28;20495;-72
2023/09/26 05:08:58;;;;;;;4.07;2.30;;;;;;;11.44;99.13;101856.31;5075777;28;20441;-72
2023/09/26 05:11:26;;;;;;;4.53;1.93;;;;;;;11.37;97.82;101862.81;5075266;28;20476;-72
2023/09/26 05:13:52;;;;;;;6.37;2.73;;;;;;;11.31;98.71;101855.78;5075177;28;20490;-71
2023/09/26 05:16:19;;;;;;;3.97;2.20;;;;;;;11.23;100.00;101853.63;5075350;28;20520;-71
2023/09/26 05:18:46;;;;;;;5.60;2.93;;;;;;;11.27;100.00;101854.72;5075194;28;20442;-71
2023/09/26 05:21:13;;;;;;;5.53;2.57;;;;;;;11.23;100.00;101848.19;5075238;28;20921;-71
2023/09/26 05:23:39;;;;;;;3.60;1.83;;;;;;;11.35;100.00;101854.16;5075321;28;20464;-71
2023/09/26 05:26:08;;;;;;;5.80;2.73;;;;;;;11.38;100.00;101852.81;5075288;28;20493;-71
2023/09/26 05:28:35;;;;;;;6.30;2.93;;;;;;;11.39;100.00;101859.03;5074932;28;20512;-71
2023/09/26 05:31:02;;;;;;;7.20;2.80;;;;;;;11.37;100.00;101856.56;5074884;28;20933;-71
2023/09/26 05:33:29;;;;;;;5.47;1.93;;;;;;;11.39;100.00;101854.41;5075063;28;20517;-72
2023/09/26 05:35:55;;;;;;;4.53;2.23;;;;;;;11.48;100.00;101854.66;5074776;28;20453;-72
2023/09/26 05:38:23;;;;;;;4.50;2.40;;;;;;;11.53;100.00;101865.50;5074891;28;20866;-72
2023/09/26 05:40:51;;;;;;;4.23;2.30;;;;;;;11.50;100.00;101856.00;5074481;28;20998;-72
2023/09/26 05:43:19;;;;;;;3.70;1.80;;;;;;;11.60;100.00;101852.47;5074731;28;20481;-69
2023/09/26 05:45:51;;;;;;;4.77;2.47;;;;;;;11.66;100.00;101854.06;5074642;28;20464;-72
2023/09/26 05:48:17;;;;;;;5.57;2.77;;;;;;;11.64;100.00;101850.81;5074618;28;20889;-73
2023/09/26 05:50:44;;;;;;;4.83;2.50;;;;;;;11.59;100.00;101851.63;5074532;28;20480;-72
2023/09/26 05:53:11;;;;;;;3.97;2.10;;;;;;;11.64;100.00;101858.94;5074066;28;21044;-74
2023/09/26 05:55:38;;;;;;;4.40;2.50;;;;;;;11.67;100.00;101871.16;5074058;28;20922;-73
2023/09/26 05:58:05;;;;;;;5.17;2.50;;;;;;;11.68;100.00;101865.44;5074733;28;20521;-73
2023/09/26 06:00:33;;;;;;;4.37;2.10;;;;;;;11.76;100.00;101866.78;5074551;28;20544;-73
2023/09/26 06:03:00;;;;;;;5.97;3.13;;;;;;;11.83;100.00;101870.88;5074078;28;20481;-73
2023/09/26 06:05:27;;;;;;;3.77;2.30;;;;;;;11.90;100.00;101877.88;5074106;28;20457;-73
2023/09/26 06:07:54;;;;;;;6.07;2.80;;;;;;;11.96;100.00;101876.78;5073731;28;20872;-73
2023/09/26 06:10:20;;;;;;;7.47;3.40;;;;;;;12.02;100.00;101870.25;5074172;28;20818;-73
2023/09/26 06:12:47;;;;;;;4.50;2.60;;;;;;;12.13;100.00;101874.53;5074130;28;21051;-74
2023/09/26 06:15:14;;;;;;;5.03;2.87;;;;;;;12.21;100.00;101867.69;5074345;28;20516;-72
2023/09/26 06:17:41;;;;;;;5.83;3.00;;;;;;;12.21;100.00;101868.50;5073901;28;20543;-74
2023/09/26 06:20:10;;;;;;;4.60;2.43;;;;;;;12.31;100.00;101870.38;5073833;28;21016;-76
2023/09/26 06:22:36;;;;;;;3.57;2.10;;;;;;;12.38;100.00;101881.72;5073624;28;20963;-74
2023/09/26 06:25:04;;;;;;;6.63;2.63;;;;;;;12.49;100.00;101877.84;5073948;28;20810;-73
2023/09/26 06:27:34;;;;;;;4.63;2.60;;;;;;;12.62;100.00;101879.13;5055648;28;20477;-73
2023/09/26 06:30:01;;;;;;;5.03;3.03;;;;;;;12.69;100.00;101876.88;5073617;28;20414;-73
2023/09/26 06:32:27;;;;;;;7.27;3.33;;;;;;;12.83;100.00;101874.34;5073390;28;20531;-73
2023/09/26 06:35:00;;;;;;;5.23;3.13;;;;;;;12.95;100.00;101868.53;5074085;28;20441;-73
2023/09/26 06:37:26;;;;;;;5.10;3.30;;;;;;;13.06;100.00;101875.53;5073367;28;20965;-72
2023/09/26 06:39:53;;;;;;;7.57;3.13;;;;;;;13.13;100.00;101865.91;5073965;28;20438;-72
2023/09/26 06:42:20;;;;;;;5.43;2.90;;;;;;;13.26;100.00;101875.34;5073633;28;20445;-71
2023/09/26 06:44:49;;;;;;;5.00;3.10;;;;;;;13.36;100.00;101872.50;5073984;28;20429;-72
2023/09/26 06:47:17;;;;;;;7.43;3.93;;;;;;;13.47;100.00;101870.50;5073888;28;20510;-72
2023/09/26 06:49:46;;;;;;;8.50;4.37;;;;;;;13.59;100.00;101872.81;5073302;28;20442;-72
2023/09/26 06:52:14;;;;;;;7.60;3.70;;;;;;;13.71;100.00;101862.34;5073174;28;20481;-71
2023/09/26 06:54:41;;;;;;;7.60;4.47;;;;;;;13.85;100.00;101865.97;5073486;28;20454;-71
2023/09/26 06:57:09;;;;;;;6.80;4.03;;;;;;;14.03;100.00;101863.56;5073488;28;20457;-71
2023/09/26 06:59:36;;;;;;;8.63;3.57;;;;;;;14.19;100.00;101869.63;5073491;28;20985;-72
2023/09/26 07:02:03;;;;;;;8.10;4.37;;;;;;;14.33;100.00;101865.88;5073489;28;20948;-72
2023/09/26 07:04:30;;;;;;;6.93;4.17;;;;;;;14.49;100.00;101871.97;5073235;28;20488;-72
2023/09/26 07:06:56;;;;;;;8.00;4.47;;;;;;;14.64;100.00;101866.25;5073415;28;21005;-72
2023/09/26 07:09:26;;;;;;;7.90;4.90;;;;;;;14.78;100.00;101865.50;5073455;28;20544;-73
2023/09/26 07:11:53;;;;;;;8.80;4.30;;;;;;;14.92;100.00;101865.53;5073415;28;20448;-72
2023/09/26 07:14:20;;;;;;;8.77;5.00;;;;;;;15.02;100.00;101868.13;5073124;28;20485;-73
2023/09/26 07:16:47;;;;;;;7.90;4.30;;;;;;;15.16;100.00;101866.22;5073221;28;20460;-72
2023/09/26 07:19:13;;;;;;;8.73;5.03;;;;;;;15.32;100.00;101864.03;5073158;28;20856;-73
2023/09/26 07:21:40;;;;;;;7.40;4.13;;;;;;;15.44;100.00;101869.78;5073280;28;20499;-74
2023/09/26 07:24:08;;;;;;;6.80;4.67;;;;;;;15.56;100.00;101875.56;5073295;28;20472;-73
2023/09/26 07:26:36;;;;;;;7.20;4.17;;;;;;;15.68;100.00;101872.38;5072878;28;20863;-74
2023/09/26 07:29:03;;;;;;;7.33;4.17;;;;;;;15.78;100.00;101882.28;5073674;28;20480;-74
2023/09/26 07:31:31;;;;;;;9.40;4.93;;;;;;;15.87;100.00;101872.25;5073350;28;20552;-74
2023/09/26 07:33:57;;;;;;;12.10;5.87;;;;;;;15.95;100.00;101871.53;5073148;28;20492;-76
2023/09/26 07:36:24;;;;;;;9.70;5.00;;;;;;;16.04;100.00;101875.19;5073673;28;20536;-74
2023/09/26 07:38:50;;;;;;;10.30;5.17;;;;;;;16.15;100.00;101875.75;5073130;28;20430;-74
2023/09/26 07:41:17;;;;;;;8.70;4.87;;;;;;;16.26;100.00;101882.63;5074962;28;20536;-74
2023/09/26 07:43:45;;;;;;;7.63;4.70;;;;;;;16.34;100.00;101881.91;5077282;28;20830;-73
2023/09/26 07:46:13;;;;;;;7.70;4.33;;;;;;;16.45;100.00;101879.72;5076926;28;20881;-73
2023/09/26 07:48:42;;;;;;;7.23;4.10;;;;;;;16.53;100.00;101884.47;5076740;28;20467;-72
2023/09/26 07:51:10;;;;;;;8.30;4.63;;;;;;;16.63;100.00;101876.00;5077080;28;20467;-73
2023/09/26 07:53:37;;;;;;;8.20;5.07;;;;;;;16.68;100.00;101882.47;5076869;28;20480;-71
2023/09/26 07:56:04;;;;;;;7.00;3.53;;;;;;;16.74;100.00;101873.09;5076691;28;20472;-72
2023/09/26 07:58:31;;;;;;;8.03;4.10;;;;;;;16.79;100.00;101876.50;5076886;28;20822;-72
2023/09/26 08:01:00;;;;;;;8.20;5.10;;;;;;;16.83;100.00;101874.75;5076249;28;20929;-72
2023/09/26 08:03:27;;;;;;;7.80;4.50;;;;;;;16.94;100.00;101875.28;5076050;28;20438;-72
2023/09/26 08:05:59;;;;;;;9.33;5.47;;;;;;;17.04;100.00;101880.50;5076874;28;20453;-72
2023/09/26 08:08:25;;;;;;;7.10;4.03;;;;;;;17.17;100.00;101873.34;5076406;28;20958;-71
2023/09/26 08:10:52;;;;;;;10.90;6.50;;;;;;;17.28;100.00;101880.16;5076358;28;20528;-72
2023/09/26 08:13:18;;;;;;;11.40;6.40;;;;;;;17.44;100.00;101874.28;5076339;28;20973;-72
2023/09/26 08:15:46;;;;;;;9.33;5.50;;;;;;;17.56;100.00;101880.78;5076248;28;20524;-72
2023/09/26 08:18:14;;;;;;;9.50;5.60;;;;;;;17.65;100.00;101880.81;5076243;28;20815;-72
2023/09/26 08:20:41;;;;;;;8.80;5.60;;;;;;;17.73;100.00;101876.50;5075877;28;20846;-72
2023/09/26 08:23:08;;;;;;;9.53;4.87;;;;;;;17.81;100.00;101879.28;5076136;28;20464;-72
2023/09/26 08:25:36;;;;;;;9.20;5.13;;;;;;;17.88;100.00;101876.91;5076011;28;20455;-72
2023/09/26 08:28:04;;;;;;;9.43;5.17;;;;;;;17.98;100.00;101872.25;5076164;28;20456;-72
2023/09/26 08:30:33;;;;;;;13.40;6.30;;;;;;;18.09;100.00;101873.53;5076046;28;20520;-74
2023/09/26 08:32:59;;;;;;;10.83;6.43;;;;;;;18.18;100.00;101868.06;5075925;28;20988;-73
2023/09/26 08:35:27;;;;;;;11.60;6.20;;;;;;;18.31;100.00;101869.84;5075944;28;20553;-73
2023/09/26 08:37:54;;;;;;;8.60;4.37;;;;;;;18.39;100.00;101867.09;5075868;28;20541;-74
2023/09/26 08:40:25;;;;;;;10.70;5.63;;;;;;;18.42;100.00;101873.91;5076416;28;20528;-73
2023/09/26 08:42:56;;;;;;;8.80;5.30;;;;;;;18.54;100.00;101875.97;5076231;28;20499;-73
2023/09/26 08:45:24;;;;;;;12.47;7.10;;;;;;;18.69;100.00;101872.78;5075706;28;20430;-73
2023/09/26 08:47:54;;;;;;;7.93;5.00;;;;;;;18.83;100.00;101870.66;5076012;28;20548;-73
2023/09/26 08:50:21;;;;;;;10.37;5.57;;;;;;;18.92;100.00;101870.66;5075936;28;20441;-73
2023/09/26 08:52:49;;;;;;;8.37;5.40;;;;;;;19.02;100.00;101869.50;5074649;28;20524;-74
2023/09/26 08:55:17;;;;;;;9.53;5.43;;;;;;;19.09;100.00;101870.63;5075603;28;20512;-73
2023/09/26 08:57:45;;;;;;;9.27;4.90;;;;;;;19.15;99.77;101868.50;5075174;28;20466;-73
2023/09/26 09:00:14;;;;;;;8.47;5.40;;;;;;;19.27;99.31;101865.06;5075197;28;20434;-73
2023/09/26 09:02:40;;;;;;;7.83;4.90;;;;;;;19.32;98.43;101862.16;5075679;28;20472;-73
2023/09/26 09:05:09;;;;;;;8.87;5.50;;;;;;;19.38;97.57;101866.31;5075078;28;20458;-73
2023/09/26 09:07:38;;;;;;;8.50;5.07;;;;;;;19.56;94.83;101856.03;5075481;28;20461;-73
2023/09/26 09:10:08;;;;;;;9.97;5.80;;;;;;;19.66;95.51;101861.22;5075513;28;20440;-73
2023/09/26 09:12:37;;;;;;;7.00;4.90;;;;;;;19.75;94.22;101859.22;5075331;28;20439;-73
2023/09/26 09:15:18;;;;;;;8.97;4.97;;;;;;;19.90;93.30;101872.38;5074998;28;20951;-73
2023/09/26 09:17:46;;;;;;;9.00;4.57;;;;;;;20.03;91.72;101873.28;5075383;28;20500;-73
2023/09/26 09:20:14;;;;;;;6.40;4.20;;;;;;;20.09;91.85;101873.88;5075102;28;20438;-73
2023/09/26 09:22:41;;;;;;;7.83;4.50;;;;;;;20.12;91.59;101864.97;5075490;28;20433;-73
2023/09/26 09:25:09;;;;;;;8.60;5.23;;;;;;;20.13;89.74;101864.63;5075077;28;20925;-73
2023/09/26 09:27:39;;;;;;;7.33;3.63;;;;;;;20.19;90.63;101859.75;5074917;28;20464;-73
2023/09/26 09:30:08;;;;;;;9.37;4.07;;;;;;;20.23;90.53;101852.44;5075063;28;20421;-72
2023/09/26 09:32:35;;;;;;;8.57;3.50;;;;;;;20.27;88.69;101856.09;5075207;28;20442;-73
2023/09/26 09:35:03;;;;;;;5.23;3.30;;;;;;;20.41;88.28;101856.66;5074778;28;20485;-73
2023/09/26 09:37:30;;;;;;;7.07;3.97;;;;;;;20.47;87.01;101854.50;5075159;28;20496;-73
2023/09/26 09:39:57;;;;;;;6.07;4.13;;;;;;;20.51;86.12;101851.91;5074795;28;20433;-73
2023/09/26 09:42:26;;;;;;;8.30;3.90;;;;;;;20.54;86.32;101845.72;5075122;28;20528;-73
2023/09/26 09:44:53;;;;;;;4.90;2.70;;;;;;;20.57;86.55;101847.81;5074283;28;20805;-73
2023/09/26 09:47:22;;;;;;;6.17;2.70;;;;;;;20.61;84.17;101838.53;5074411;28;20548;-73
2023/09/26 09:49:49;;;;;;;4.57;3.13;;;;;;;20.77;83.27;101835.97;5075240;28;20445;-72
2023/09/26 09:52:19;;;;;;;6.40;3.30;;;;;;;20.89;82.71;101837.91;5074694;28;20533;-73
2023/09/26 09:54:47;;;;;;;7.93;4.00;;;;;;;20.95;83.26;101830.25;5074342;28;20973;-73
2023/09/26 09:57:17;;;;;;;7.00;3.80;;;;;;;20.98;83.14;101833.13;5074374;28;20544;-73
2023/09/26 09:59:45;;;;;;;4.60;2.33;;;;;;;21.03;82.68;101834.84;5074566;28;20445;-73
2023/09/26 10:02:16;;;;;;;5.87;2.67;;;;;;;21.08;82.41;101837.41;5074492;28;20490;-73
2023/09/26 10:04:43;;;;;;;6.27;3.10;;;;;;;21.15;82.38;101829.38;5073056;28;20449;-73
2023/09/26 10:07:12;;;;;;;5.13;3.00;;;;;;;21.16;81.84;101833.72;5074310;28;20449;-73
2023/09/26 10:09:39;;;;;;;8.70;3.33;;;;;;;21.19;80.65;101833.03;5074109;28;20433;-73
2023/09/26 10:12:07;;;;;;;8.37;2.60;;;;;;;21.22;79.73;101821.34;5074224;28;20477;-73
2023/09/26 10:14:34;;;;;;;6.83;3.83;;;;;;;21.30;80.72;101825.94;5073982;28;20523;-73
2023/09/26 10:17:04;;;;;;;5.20;2.57;;;;;;;21.41;79.63;101829.88;5073723;28;20496;-72
2023/09/26 10:19:32;;;;;;;5.90;2.80;;;;;;;21.52;79.26;101824.72;5074143;28;20479;-72
2023/09/26 10:22:15;;;;;;;5.63;2.80;;;;;;;21.60;79.29;101831.25;5074105;28;20440;-73
2023/09/26 10:24:48;;;;;;;5.00;2.77;;;;;;;21.71;79.25;101826.09;5074171;28;20819;-75
2023/09/26 10:27:23;;;;;;;4.80;2.63;;;;;;;21.69;75.94;101818.13;5073592;28;21016;-75
2023/09/26 10:29:52;;;;;;;4.60;2.60;;;;;;;21.73;76.42;101818.25;5074074;28;20406;-73
2023/09/26 10:32:31;;;;;;;5.43;2.70;;;;;;;21.78;77.42;101816.09;5074055;28;20445;-73
2023/09/26 10:34:58;;;;;;;4.13;2.50;;;;;;;21.89;77.11;101811.69;5073784;28;20535;-73
2023/09/26 10:37:27;;;;;;;5.47;2.60;;;;;;;22.07;76.50;101803.94;5073799;28;20549;-73
2023/09/26 10:39:53;;;;;;;4.77;2.40;;;;;;;22.22;76.34;101807.94;5073417;28;21000;-74
2023/09/26 10:42:21;;;;;;;3.80;2.40;;;;;;;22.33;74.86;101809.06;5073642;28;20523;-73
2023/09/26 10:44:50;;;;;;;4.63;2.40;;;;;;;22.48;74.85;101803.91;5074055;28;20440;-74
2023/09/26 10:47:17;;;;;;;3.70;2.07;;;;;;;22.55;73.50;101799.41;5073391;28;20461;-74
2023/09/26 10:49:46;;;;;;;4.73;2.93;;;;;;;22.69;72.16;101804.50;5073503;28;21005;-74
2023/09/26 10:52:13;;;;;;;4.33;1.87;;;;;;;22.85;70.76;101799.81;5073877;28;20528;-73
2023/09/26 10:54:41;;;;;;;5.30;2.67;;;;;;;22.92;69.41;101796.44;5073841;28;21075;-73
2023/09/26 10:57:08;;;;;;;3.73;2.17;;;;;;;23.12;69.26;101795.41;5073721;28;20822;-74
2023/09/26 10:59:35;;;;;;;5.53;2.20;;;;;;;23.23;68.77;101790.13;5073799;28;20461;-73
2023/09/26 11:02:04;;;;;;;5.50;2.37;;;;;;;23.33;67.31;101794.28;5073187;28;20437;-73
2023/09/26 11:04:32;;;;;;;4.70;1.93;;;;;;;23.53;69.51;101792.41;5073317;28;20514;-74
2023/09/26 11:07:02;;;;;;;4.83;2.80;;;;;;;23.83;70.23;101782.44;5073364;28;20532;-74
2023/09/26 11:09:29;;;;;;;3.97;2.37;;;;;;;24.34;66.08;101789.81;5073447;28;20516;-73
2023/09/26 11:11:57;;;;;;;4.70;2.47;;;;;;;25.21;65.44;101790.22;5073299;28;20451;-73
2023/09/26 11:14:23;;;;;;;4.43;2.33;;;;;;;26.03;61.29;101792.25;5073314;28;20891;-73
2023/09/26 11:16:51;;;;;;;4.67;2.17;;;;;;;26.96;59.51;101795.22;5077007;28;20457;-73
2023/09/26 11:19:18;;;;;;;4.70;2.10;;;;;;;27.91;55.15;101794.34;5077432;28;20444;-73
2023/09/26 11:21:44;;;;;;;4.57;2.30;;;;;;;28.61;51.81;101795.00;5077725;28;20528;-74